createdAt,value
2018-11-27T00:00:12.373Z,44.31
2018-11-27T00:01:12.297Z,44.00
2018-11-27T00:02:12.223Z,44.31
2018-11-27T00:03:12.156Z,44.00
2018-11-27T00:04:12.099Z,44.00
2018-11-27T00:05:12.059Z,44.00
2018-11-27T00:06:11.965Z,43.90
2018-11-27T00:07:11.888Z,44.51
2018-11-27T00:08:11.828Z,44.31
2018-11-27T00:09:11.768Z,44.40
2018-11-27T00:10:11.696Z,44.31
2018-11-27T00:11:11.645Z,44.51
2018-11-27T00:12:11.572Z,44.31
2018-11-27T00:13:11.526Z,44.31
2018-11-27T00:14:11.446Z,44.31
2018-11-27T00:15:11.377Z,43.90
2018-11-27T00:16:11.321Z,43.90
2018-11-27T00:17:11.247Z,44.31
2018-11-27T00:18:11.187Z,43.30
2018-11-27T00:19:11.120Z,43.90
2018-11-27T00:20:11.055Z,43.90
2018-11-27T00:21:10.997Z,43.40
2018-11-27T00:22:10.918Z,43.60
2018-11-27T00:23:10.854Z,43.60
2018-11-27T00:24:10.789Z,44.31
2018-11-27T00:25:10.724Z,43.70
2018-11-27T00:26:10.677Z,43.30
2018-11-27T00:27:10.596Z,43.80
2018-11-27T00:28:10.529Z,43.80
2018-11-27T00:29:10.471Z,43.38
2018-11-27T00:30:10.384Z,44.00
2018-11-27T00:31:10.330Z,43.70
2018-11-27T00:32:10.246Z,43.50
2018-11-27T00:33:10.176Z,44.10
2018-11-27T00:34:10.106Z,43.90
2018-11-27T00:35:10.040Z,43.70
2018-11-27T00:36:09.986Z,43.80
2018-11-27T00:37:09.903Z,43.88
2018-11-27T00:38:09.840Z,44.00
2018-11-27T00:39:09.779Z,43.28
2018-11-27T00:40:09.715Z,43.88
2018-11-27T00:41:09.660Z,43.98
2018-11-27T00:42:09.577Z,43.88
2018-11-27T00:43:09.519Z,43.98
2018-11-27T00:44:09.446Z,43.20
2018-11-27T00:45:09.379Z,43.50
2018-11-27T00:46:09.341Z,44.10
2018-11-27T00:47:09.254Z,42.38
2018-11-27T00:48:09.258Z,43.18
2018-11-27T00:49:09.169Z,43.00
2018-11-27T00:50:09.063Z,43.20
2018-11-27T00:51:08.990Z,43.68
2018-11-27T00:52:08.942Z,43.40
2018-11-27T00:53:08.867Z,42.58
2018-11-27T00:54:08.802Z,43.18
2018-11-27T00:55:08.737Z,43.18
2018-11-27T00:56:08.678Z,43.20
2018-11-27T00:57:08.629Z,42.97
2018-11-27T00:58:08.555Z,43.30
2018-11-27T00:59:08.495Z,43.40
2018-11-27T01:00:08.436Z,43.20
2018-11-27T01:01:08.384Z,42.30
2018-11-27T01:02:08.338Z,42.60
2018-11-27T01:03:08.264Z,43.00
2018-11-27T01:04:08.206Z,43.40
2018-11-27T01:05:08.149Z,43.30
2018-11-27T01:06:08.099Z,43.00
2018-11-27T01:07:08.052Z,42.90
2018-11-27T01:08:07.982Z,42.97
2018-11-27T01:09:07.932Z,43.30
2018-11-27T01:10:07.877Z,43.10
2018-11-27T01:11:07.814Z,42.49
2018-11-27T01:12:07.786Z,43.40
2018-11-27T01:13:07.705Z,42.60
2018-11-27T01:14:07.640Z,43.20
2018-11-27T01:15:07.581Z,43.30
2018-11-27T01:16:07.519Z,42.69
2018-11-27T01:17:07.463Z,43.00
2018-11-27T01:18:07.424Z,43.00
2018-11-27T01:19:07.350Z,43.30
2018-11-27T01:20:07.288Z,43.10
2018-11-27T01:21:07.229Z,43.30
2018-11-27T01:22:07.173Z,43.10
2018-11-27T01:23:07.120Z,43.30
2018-11-27T01:24:07.046Z,43.30
2018-11-27T01:25:06.986Z,43.10
2018-11-27T01:26:06.915Z,43.20
2018-11-27T01:27:06.857Z,42.60
2018-11-27T01:28:06.808Z,43.30
2018-11-27T01:29:06.734Z,43.30
2018-11-27T01:30:06.667Z,42.60
2018-11-27T01:31:06.602Z,42.60
2018-11-27T01:32:06.540Z,42.60
2018-11-27T01:33:06.494Z,43.40
2018-11-27T01:34:06.404Z,42.49
2018-11-27T01:35:06.349Z,42.60
2018-11-27T01:36:06.297Z,43.20
2018-11-27T01:37:06.256Z,42.80
2018-11-27T01:38:06.219Z,42.40
2018-11-27T01:39:06.130Z,42.30
2018-11-27T01:40:06.072Z,42.60
2018-11-27T01:41:06.018Z,42.60
2018-11-27T01:42:05.963Z,42.40
2018-11-27T01:43:05.927Z,42.19
2018-11-27T01:44:05.835Z,42.19
2018-11-27T01:45:05.780Z,42.19
2018-11-27T01:46:05.724Z,42.60
2018-11-27T01:47:05.662Z,42.60
2018-11-27T01:48:05.614Z,42.40
2018-11-27T01:49:05.570Z,42.60
2018-11-27T01:50:05.505Z,42.60
2018-11-27T01:51:05.448Z,42.60
2018-11-27T01:52:05.395Z,43.00
2018-11-27T01:53:05.339Z,42.40
2018-11-27T01:54:05.289Z,43.00
2018-11-27T01:55:05.225Z,42.80
2018-11-27T01:56:05.162Z,42.60
2018-11-27T01:57:05.110Z,42.80
2018-11-27T01:58:05.050Z,43.10
2018-11-27T01:59:05.030Z,43.10
2018-11-27T02:00:04.942Z,42.49
2018-11-27T02:01:04.895Z,43.10
2018-11-27T02:02:04.831Z,42.69
2018-11-27T02:03:04.771Z,42.19
2018-11-27T02:04:04.728Z,42.49
2018-11-27T02:05:04.655Z,42.10
2018-11-27T02:06:04.598Z,42.19
2018-11-27T02:07:04.532Z,42.40
2018-11-27T02:08:04.472Z,41.99
2018-11-27T02:09:04.419Z,41.79
2018-11-27T02:10:04.344Z,42.19
2018-11-27T02:11:04.279Z,41.99
2018-11-27T02:12:04.216Z,41.99
2018-11-27T02:13:04.153Z,41.99
2018-11-27T02:14:04.122Z,41.79
2018-11-27T02:15:04.040Z,42.19
2018-11-27T02:16:03.967Z,41.99
2018-11-27T02:17:03.902Z,41.79
2018-11-27T02:18:03.843Z,42.10
2018-11-27T02:19:03.788Z,41.99
2018-11-27T02:20:03.741Z,41.79
2018-11-27T02:21:03.661Z,41.89
2018-11-27T02:22:03.597Z,41.79
2018-11-27T02:23:03.535Z,41.89
2018-11-27T02:24:03.477Z,42.19
2018-11-27T02:25:03.435Z,42.10
2018-11-27T02:26:03.367Z,42.10
2018-11-27T02:27:03.309Z,42.40
2018-11-27T02:28:03.245Z,42.19
2018-11-27T02:29:03.196Z,42.10
2018-11-27T02:30:03.146Z,41.69
2018-11-27T02:31:03.074Z,41.99
2018-11-27T02:32:03.016Z,41.99
2018-11-27T02:33:02.956Z,41.99
2018-11-27T02:34:02.926Z,42.19
2018-11-27T02:35:02.851Z,41.99
2018-11-27T02:36:02.775Z,42.19
2018-11-27T02:37:02.723Z,42.19
2018-11-27T02:38:02.676Z,41.99
2018-11-27T02:39:02.609Z,42.19
2018-11-27T02:40:02.562Z,41.99
2018-11-27T02:41:02.500Z,42.19
2018-11-27T02:42:02.429Z,42.10
2018-11-27T02:43:02.368Z,41.79
2018-11-27T02:44:02.313Z,42.30
2018-11-27T02:45:02.258Z,42.19
2018-11-27T02:46:02.202Z,42.10
2018-11-27T02:47:02.135Z,41.79
2018-11-27T02:48:02.083Z,42.40
2018-11-27T02:49:02.027Z,41.69
2018-11-27T02:50:01.977Z,42.30
2018-11-27T02:51:01.906Z,41.49
2018-11-27T02:52:01.848Z,41.59
2018-11-27T02:53:01.789Z,41.49
2018-11-27T02:54:01.737Z,41.49
2018-11-27T02:55:01.689Z,41.69
2018-11-27T02:56:01.612Z,41.29
2018-11-27T02:57:01.552Z,41.79
2018-11-27T02:58:01.494Z,42.10
2018-11-27T02:59:01.443Z,41.49
2018-11-27T03:00:01.395Z,41.39
2018-11-27T03:01:01.323Z,41.49
2018-11-27T03:02:01.260Z,41.59
2018-11-27T03:03:01.197Z,41.59
2018-11-27T03:04:01.129Z,41.99
2018-11-27T03:05:01.095Z,41.79
2018-11-27T03:06:01.014Z,41.59
2018-11-27T03:07:00.956Z,41.59
2018-11-27T03:08:00.897Z,41.69
2018-11-27T03:09:00.838Z,41.69
2018-11-27T03:10:00.793Z,41.79
2018-11-27T03:11:00.723Z,41.59
2018-11-27T03:12:00.666Z,41.39
2018-11-27T03:13:00.604Z,41.69
2018-11-27T03:14:00.554Z,41.69
2018-11-27T03:15:00.521Z,41.61
2018-11-27T03:16:00.438Z,42.10
2018-11-27T03:17:00.371Z,41.49
2018-11-27T03:18:00.311Z,41.49
2018-11-27T03:19:00.257Z,41.69
2018-11-27T03:20:00.190Z,41.59
2018-11-27T03:21:00.143Z,41.69
2018-11-27T03:22:00.075Z,41.71
2018-11-27T03:23:00.027Z,41.69
2018-11-27T03:23:59.955Z,41.69
2018-11-27T03:24:59.918Z,41.51
2018-11-27T03:25:59.865Z,41.49
2018-11-27T03:26:59.799Z,41.39
2018-11-27T03:27:59.739Z,41.71
2018-11-27T03:28:59.687Z,41.69
2018-11-27T03:29:59.619Z,41.59
2018-11-27T03:30:59.583Z,41.41
2018-11-27T03:31:59.548Z,41.61
2018-11-27T03:32:59.453Z,41.61
2018-11-27T03:33:59.394Z,41.61
2018-11-27T03:34:59.342Z,41.82
2018-11-27T03:35:59.302Z,41.59
2018-11-27T03:36:59.232Z,41.41
2018-11-27T03:37:59.176Z,41.71
2018-11-27T03:38:59.120Z,41.51
2018-11-27T03:39:59.072Z,41.79
2018-11-27T03:40:59.030Z,42.21
2018-11-27T03:41:58.965Z,41.71
2018-11-27T03:42:58.926Z,41.82
2018-11-27T03:43:58.849Z,41.99
2018-11-27T03:44:58.816Z,41.91
2018-11-27T03:45:58.761Z,41.82
2018-11-27T03:46:58.681Z,41.89
2018-11-27T03:47:58.619Z,41.91
2018-11-27T03:48:58.565Z,41.69
2018-11-27T03:49:58.513Z,41.61
2018-11-27T03:50:58.461Z,41.69
2018-11-27T03:51:58.396Z,41.69
2018-11-27T03:52:58.361Z,41.79
2018-11-27T03:53:58.279Z,41.59
2018-11-27T03:54:58.221Z,41.89
2018-11-27T03:55:58.175Z,41.89
2018-11-27T03:56:58.107Z,41.89
2018-11-27T03:57:58.063Z,41.82
2018-11-27T03:58:58.002Z,41.89
2018-11-27T03:59:57.945Z,41.82
2018-11-27T04:00:57.919Z,41.59
2018-11-27T04:01:57.835Z,41.99
2018-11-27T04:02:57.780Z,41.79
2018-11-27T04:03:57.724Z,41.21
2018-11-27T04:04:57.672Z,41.21
2018-11-27T04:05:57.610Z,41.59
2018-11-27T04:06:57.568Z,41.82
2018-11-27T04:07:57.505Z,41.91
2018-11-27T04:08:57.445Z,41.61
2018-11-27T04:09:57.395Z,41.01
2018-11-27T04:10:57.339Z,41.21
2018-11-27T04:11:57.296Z,41.01
2018-11-27T04:12:57.225Z,41.39
2018-11-27T04:13:57.170Z,41.31
2018-11-27T04:14:57.110Z,41.51
2018-11-27T04:15:57.060Z,41.51
2018-11-27T04:16:57.014Z,41.61
2018-11-27T04:17:56.956Z,41.51
2018-11-27T04:18:56.901Z,41.71
2018-11-27T04:19:56.855Z,41.91
2018-11-27T04:20:56.796Z,41.61
2018-11-27T04:21:56.755Z,41.51
2018-11-27T04:22:56.683Z,41.71
2018-11-27T04:23:56.627Z,41.61
2018-11-27T04:24:56.574Z,41.82
2018-11-27T04:25:56.532Z,41.61
2018-11-27T04:26:56.474Z,41.61
2018-11-27T04:27:56.421Z,41.41
2018-11-27T04:28:56.356Z,41.51
2018-11-27T04:29:56.297Z,41.61
2018-11-27T04:30:56.247Z,41.51
2018-11-27T04:31:56.194Z,41.82
2018-11-27T04:32:56.123Z,41.61
2018-11-27T04:33:56.083Z,41.61
2018-11-27T04:34:56.013Z,41.31
2018-11-27T04:35:55.967Z,41.61
2018-11-27T04:36:55.918Z,41.61
2018-11-27T04:37:55.848Z,41.61
2018-11-27T04:38:55.796Z,41.61
2018-11-27T04:39:55.742Z,41.61
2018-11-27T04:40:55.685Z,41.61
2018-11-27T04:41:55.647Z,41.41
2018-11-27T04:42:55.587Z,41.61
2018-11-27T04:43:55.522Z,41.51
2018-11-27T04:44:55.469Z,41.51
2018-11-27T04:45:55.405Z,41.61
2018-11-27T04:46:55.375Z,42.01
2018-11-27T04:47:55.278Z,41.61
2018-11-27T04:48:55.225Z,41.91
2018-11-27T04:49:55.170Z,41.61
2018-11-27T04:50:55.103Z,41.71
2018-11-27T04:51:55.051Z,41.61
2018-11-27T04:52:55.012Z,41.71
2018-11-27T04:53:54.927Z,41.61
2018-11-27T04:54:54.867Z,41.71
2018-11-27T04:55:54.807Z,41.61
2018-11-27T04:56:54.771Z,39.60
2018-11-27T04:57:54.704Z,38.70
2018-11-27T04:58:54.633Z,38.09
2018-11-27T04:59:54.573Z,37.89
2018-11-27T05:00:54.518Z,37.79
2018-11-27T05:01:54.461Z,37.89
2018-11-27T05:02:54.418Z,38.29
2018-11-27T05:03:54.348Z,38.40
2018-11-27T05:04:54.300Z,39.00
2018-11-27T05:05:54.249Z,38.79
2018-11-27T05:06:54.188Z,38.70
2018-11-27T05:07:54.152Z,38.49
2018-11-27T05:08:54.091Z,38.70
2018-11-27T05:09:54.041Z,38.79
2018-11-27T05:10:53.985Z,38.60
2018-11-27T05:11:53.925Z,38.79
2018-11-27T05:12:53.898Z,38.40
2018-11-27T05:13:53.809Z,39.00
2018-11-27T05:14:53.754Z,39.30
2018-11-27T05:15:53.697Z,39.40
2018-11-27T05:16:53.653Z,39.40
2018-11-27T05:17:53.601Z,39.60
2018-11-27T05:18:53.525Z,39.60
2018-11-27T05:19:53.471Z,39.60
2018-11-27T05:20:53.407Z,39.60
2018-11-27T05:21:53.338Z,39.30
2018-11-27T05:22:53.299Z,39.60
2018-11-27T05:23:53.224Z,39.30
2018-11-27T05:24:53.164Z,38.29
2018-11-27T05:25:53.105Z,37.79
2018-11-27T05:26:53.045Z,37.89
2018-11-27T05:27:52.997Z,38.29
2018-11-27T05:28:52.916Z,38.20
2018-11-27T05:29:52.851Z,37.49
2018-11-27T05:30:52.793Z,37.59
2018-11-27T05:31:52.725Z,37.69
2018-11-27T05:32:52.665Z,37.79
2018-11-27T05:33:52.613Z,38.79
2018-11-27T05:34:52.541Z,37.99
2018-11-27T05:35:52.483Z,38.70
2018-11-27T05:36:52.421Z,38.70
2018-11-27T05:37:52.354Z,39.20
2018-11-27T05:38:52.313Z,38.29
2018-11-27T05:39:52.238Z,38.90
2018-11-27T05:40:52.175Z,38.90
2018-11-27T05:41:52.115Z,39.00
2018-11-27T05:42:52.059Z,38.40
2018-11-27T05:43:52.010Z,38.49
2018-11-27T05:44:51.937Z,39.20
2018-11-27T05:45:51.877Z,39.20
2018-11-27T05:46:51.819Z,39.32
2018-11-27T05:47:51.765Z,39.20
2018-11-27T05:48:51.719Z,39.40
2018-11-27T05:49:51.657Z,39.40
2018-11-27T05:50:51.602Z,39.62
2018-11-27T05:51:51.536Z,39.50
2018-11-27T05:52:51.489Z,39.50
2018-11-27T05:53:51.431Z,40.22
2018-11-27T05:54:51.362Z,40.22
2018-11-27T05:55:51.293Z,39.90
2018-11-27T05:56:51.242Z,40.11
2018-11-27T05:57:51.264Z,40.41
2018-11-27T05:58:51.145Z,40.91
2018-11-27T05:59:51.072Z,41.23
2018-11-27T06:00:51.018Z,41.01
2018-11-27T06:01:50.963Z,41.83
2018-11-27T06:02:50.904Z,42.01
2018-11-27T06:03:50.884Z,42.03
2018-11-27T06:04:50.776Z,42.03
2018-11-27T06:05:50.719Z,41.82
2018-11-27T06:06:50.660Z,42.33
2018-11-27T06:07:50.596Z,42.24
2018-11-27T06:08:50.570Z,41.82
2018-11-27T06:09:50.482Z,42.01
2018-11-27T06:10:50.424Z,42.01
2018-11-27T06:11:50.359Z,42.32
2018-11-27T06:12:50.309Z,42.13
2018-11-27T06:13:50.240Z,42.01
2018-11-27T06:14:50.192Z,42.01
2018-11-27T06:15:50.116Z,41.83
2018-11-27T06:16:50.049Z,42.01
2018-11-27T06:17:49.980Z,42.52
2018-11-27T06:18:49.927Z,42.21
2018-11-27T06:19:49.862Z,42.21
2018-11-27T06:20:49.795Z,42.21
2018-11-27T06:21:49.734Z,42.21
2018-11-27T06:22:49.669Z,42.82
2018-11-27T06:23:49.601Z,42.82
2018-11-27T06:24:49.553Z,42.21
2018-11-27T06:25:49.498Z,41.91
2018-11-27T06:26:49.417Z,42.21
2018-11-27T06:27:49.359Z,43.02
2018-11-27T06:28:49.310Z,42.41
2018-11-27T06:29:49.247Z,42.01
2018-11-27T06:30:49.177Z,42.01
2018-11-27T06:31:49.119Z,41.82
2018-11-27T06:32:49.053Z,42.21
2018-11-27T06:33:48.999Z,42.01
2018-11-27T06:34:48.952Z,41.91
2018-11-27T06:35:48.867Z,42.01
2018-11-27T06:36:48.815Z,41.51
2018-11-27T06:37:48.747Z,40.61
2018-11-27T06:38:48.676Z,40.20
2018-11-27T06:39:48.650Z,40.30
2018-11-27T06:40:48.554Z,40.20
2018-11-27T06:41:48.486Z,39.80
2018-11-27T06:42:48.429Z,39.90
2018-11-27T06:43:48.364Z,39.80
2018-11-27T06:44:48.308Z,39.40
2018-11-27T06:45:48.250Z,40.11
2018-11-27T06:46:48.176Z,39.80
2018-11-27T06:47:48.118Z,40.20
2018-11-27T06:48:48.059Z,39.88
2018-11-27T06:49:48.002Z,40.30
2018-11-27T06:50:47.952Z,40.11
2018-11-27T06:51:47.881Z,39.50
2018-11-27T06:52:47.823Z,40.11
2018-11-27T06:53:47.764Z,40.00
2018-11-27T06:54:47.699Z,40.11
2018-11-27T06:55:47.657Z,40.30
2018-11-27T06:56:47.582Z,40.30
2018-11-27T06:57:47.519Z,40.11
2018-11-27T06:58:47.454Z,40.41
2018-11-27T06:59:47.397Z,40.41
2018-11-27T07:00:47.343Z,40.30
2018-11-27T07:01:47.275Z,40.30
2018-11-27T07:02:47.208Z,40.20
2018-11-27T07:03:47.148Z,40.20
2018-11-27T07:04:47.080Z,39.70
2018-11-27T07:05:47.037Z,40.11
2018-11-27T07:06:46.962Z,40.11
2018-11-27T07:07:46.907Z,39.80
2018-11-27T07:08:46.839Z,40.41
2018-11-27T07:09:46.778Z,40.30
2018-11-27T07:10:46.726Z,40.02
2018-11-27T07:11:46.657Z,40.42
2018-11-27T07:12:46.605Z,40.70
2018-11-27T07:13:46.553Z,41.41
2018-11-27T07:14:46.493Z,40.81
2018-11-27T07:15:46.473Z,40.83
2018-11-27T07:16:46.392Z,41.11
2018-11-27T07:17:46.345Z,40.53
2018-11-27T07:18:46.285Z,41.03
2018-11-27T07:19:46.238Z,41.31
2018-11-27T07:20:46.210Z,40.92
2018-11-27T07:21:46.135Z,41.21
2018-11-27T07:22:46.090Z,41.91
2018-11-27T07:23:46.026Z,41.61
2018-11-27T07:24:45.963Z,41.41
2018-11-27T07:25:45.929Z,41.51
2018-11-27T07:26:45.844Z,41.21
2018-11-27T07:27:45.801Z,41.61
2018-11-27T07:28:45.749Z,41.71
2018-11-27T07:29:45.683Z,42.01
2018-11-27T07:30:45.624Z,41.91
2018-11-27T07:31:45.546Z,41.91
2018-11-27T07:32:45.488Z,41.91
2018-11-27T07:33:45.428Z,41.82
2018-11-27T07:34:45.366Z,41.82
2018-11-27T07:35:45.323Z,41.61
2018-11-27T07:36:45.259Z,41.61
2018-11-27T07:37:45.187Z,41.82
2018-11-27T07:38:45.122Z,42.11
2018-11-27T07:39:45.064Z,41.61
2018-11-27T07:40:45.014Z,41.61
2018-11-27T07:41:44.942Z,41.91
2018-11-27T07:42:44.879Z,41.61
2018-11-27T07:43:44.814Z,41.51
2018-11-27T07:44:44.754Z,41.51
2018-11-27T07:45:44.705Z,41.61
2018-11-27T07:46:44.627Z,41.71
2018-11-27T07:47:44.566Z,42.01
2018-11-27T07:48:44.495Z,41.91
2018-11-27T07:49:44.437Z,41.59
2018-11-27T07:50:44.393Z,41.19
2018-11-27T07:51:44.317Z,41.71
2018-11-27T07:52:44.254Z,41.51
2018-11-27T07:53:44.199Z,41.69
2018-11-27T07:54:44.147Z,41.49
2018-11-27T07:55:44.095Z,41.49
2018-11-27T07:56:44.028Z,41.69
2018-11-27T07:57:43.973Z,40.99
2018-11-27T07:58:43.918Z,40.99
2018-11-27T07:59:43.859Z,41.19
2018-11-27T08:00:44.855Z,40.99
2018-11-27T08:01:43.744Z,40.79
2018-11-27T08:02:43.688Z,40.99
2018-11-27T08:03:43.628Z,40.99
2018-11-27T08:04:43.583Z,41.59
2018-11-27T08:05:43.525Z,40.99
2018-11-27T08:06:43.448Z,41.39
2018-11-27T08:07:43.394Z,41.09
2018-11-27T08:08:43.325Z,41.39
2018-11-27T08:09:43.273Z,41.61
2018-11-27T08:10:43.222Z,41.39
2018-11-27T08:11:43.139Z,41.61
2018-11-27T08:12:43.075Z,41.01
2018-11-27T08:13:43.011Z,41.51
2018-11-27T08:14:42.934Z,41.49
2018-11-27T08:15:42.879Z,41.91
2018-11-27T08:16:42.804Z,41.21
2018-11-27T08:17:42.736Z,41.89
2018-11-27T08:18:42.687Z,40.99
2018-11-27T08:19:42.608Z,41.39
2018-11-27T08:20:42.565Z,41.99
2018-11-27T08:21:42.476Z,41.82
2018-11-27T08:22:42.408Z,41.61
2018-11-27T08:23:42.345Z,42.01
2018-11-27T08:24:42.275Z,41.59
2018-11-27T08:25:42.213Z,41.69
2018-11-27T08:26:42.162Z,41.79
2018-11-27T08:27:42.084Z,41.79
2018-11-27T08:28:42.032Z,41.31
2018-11-27T08:29:41.976Z,41.29
2018-11-27T08:30:41.910Z,41.31
2018-11-27T08:31:41.872Z,41.69
2018-11-27T08:32:41.796Z,41.82
2018-11-27T08:33:41.753Z,41.91
2018-11-27T08:34:41.665Z,41.51
2018-11-27T08:35:41.606Z,41.61
2018-11-27T08:36:41.549Z,41.71
2018-11-27T08:37:41.466Z,41.82
2018-11-27T08:38:41.413Z,41.61
2018-11-27T08:39:41.335Z,41.71
2018-11-27T08:40:41.290Z,41.51
2018-11-27T08:41:41.225Z,41.82
2018-11-27T08:42:41.151Z,41.59
2018-11-27T08:43:41.084Z,41.71
2018-11-27T08:44:41.017Z,41.82
2018-11-27T08:45:40.954Z,41.51
2018-11-27T08:46:40.919Z,41.41
2018-11-27T08:47:40.822Z,41.41
2018-11-27T08:48:40.758Z,41.51
2018-11-27T08:49:40.685Z,41.41
2018-11-27T08:50:40.617Z,41.61
2018-11-27T08:51:40.589Z,41.39
2018-11-27T08:52:40.486Z,41.51
2018-11-27T08:53:40.422Z,41.49
2018-11-27T08:54:40.356Z,42.19
2018-11-27T08:55:40.298Z,41.41
2018-11-27T08:56:40.249Z,41.59
2018-11-27T08:57:40.168Z,41.61
2018-11-27T08:58:40.107Z,41.51
2018-11-27T08:59:40.042Z,41.71
2018-11-27T09:00:39.994Z,41.39
2018-11-27T09:01:39.922Z,41.49
2018-11-27T09:02:39.854Z,41.31
2018-11-27T09:03:39.782Z,41.49
2018-11-27T09:04:39.725Z,41.49
2018-11-27T09:05:39.660Z,41.79
2018-11-27T09:06:39.603Z,41.69
2018-11-27T09:07:39.518Z,41.29
2018-11-27T09:08:39.457Z,41.59
2018-11-27T09:09:39.392Z,41.39
2018-11-27T09:10:39.316Z,41.59
2018-11-27T09:11:39.289Z,41.59
2018-11-27T09:12:39.184Z,41.69
2018-11-27T09:13:39.155Z,41.69
2018-11-27T09:14:39.085Z,41.39
2018-11-27T09:15:38.998Z,42.10
2018-11-27T09:16:38.948Z,41.89
2018-11-27T09:17:38.867Z,41.59
2018-11-27T09:18:38.804Z,41.69
2018-11-27T09:19:38.738Z,41.79
2018-11-27T09:20:38.693Z,41.89
2018-11-27T09:21:38.632Z,41.29
2018-11-27T09:22:38.547Z,41.89
2018-11-27T09:23:38.489Z,41.89
2018-11-27T09:24:38.424Z,41.29
2018-11-27T09:25:38.366Z,41.29
2018-11-27T09:26:38.328Z,41.29
2018-11-27T09:27:38.243Z,41.39
2018-11-27T09:28:38.177Z,41.29
2018-11-27T09:29:38.109Z,41.29
2018-11-27T09:30:38.052Z,41.79
2018-11-27T09:31:37.974Z,40.99
2018-11-27T09:32:37.932Z,40.99
2018-11-27T09:33:37.841Z,41.19
2018-11-27T09:34:37.768Z,41.29
2018-11-27T09:35:37.707Z,40.99
2018-11-27T09:36:37.629Z,40.99
2018-11-27T09:37:37.771Z,41.19
2018-11-27T09:38:37.495Z,41.29
2018-11-27T09:39:37.427Z,41.69
2018-11-27T09:40:37.357Z,41.79
2018-11-27T09:41:37.291Z,41.09
2018-11-27T09:42:37.246Z,41.39
2018-11-27T09:43:37.168Z,41.79
2018-11-27T09:44:37.103Z,41.49
2018-11-27T09:45:37.043Z,41.59
2018-11-27T09:46:37.822Z,41.89
2018-11-27T09:47:36.940Z,41.49
2018-11-27T09:48:36.868Z,41.69
2018-11-27T09:49:36.809Z,41.69
2018-11-27T09:50:36.743Z,41.39
2018-11-27T09:51:36.683Z,41.49
2018-11-27T09:52:36.646Z,42.30
2018-11-27T09:53:36.566Z,41.19
2018-11-27T09:54:36.509Z,42.11
2018-11-27T09:55:36.439Z,42.21
2018-11-27T09:56:36.381Z,41.79
2018-11-27T09:57:36.335Z,42.19
2018-11-27T09:58:36.261Z,41.79
2018-11-27T09:59:36.192Z,42.30
2018-11-27T10:00:36.132Z,42.01
2018-11-27T10:01:36.064Z,42.19
2018-11-27T10:02:36.023Z,42.01
2018-11-27T10:03:35.945Z,42.30
2018-11-27T10:04:35.883Z,42.11
2018-11-27T10:05:35.819Z,43.02
2018-11-27T10:06:35.767Z,42.21
2018-11-27T10:07:35.723Z,42.90
2018-11-27T10:08:35.656Z,42.92
2018-11-27T10:09:35.584Z,42.80
2018-11-27T10:10:35.527Z,42.60
2018-11-27T10:11:35.459Z,42.69
2018-11-27T10:12:35.403Z,42.60
2018-11-27T10:13:35.353Z,42.60
2018-11-27T10:14:35.283Z,43.22
2018-11-27T10:15:35.226Z,43.22
2018-11-27T10:16:35.157Z,42.60
2018-11-27T10:17:35.382Z,42.60
2018-11-27T10:18:35.052Z,42.60
2018-11-27T10:19:34.978Z,42.60
2018-11-27T10:20:34.914Z,42.60
2018-11-27T10:21:34.848Z,42.80
2018-11-27T10:22:34.789Z,42.40
2018-11-27T10:23:34.735Z,42.90
2018-11-27T10:24:34.659Z,42.90
2018-11-27T10:25:34.588Z,42.49
2018-11-27T10:26:34.517Z,42.80
2018-11-27T10:27:34.457Z,42.19
2018-11-27T10:28:34.394Z,42.80
2018-11-27T10:29:34.329Z,42.40
2018-11-27T10:30:34.263Z,41.99
2018-11-27T10:31:34.188Z,42.30
2018-11-27T10:32:34.110Z,42.30
2018-11-27T10:33:34.060Z,42.30
2018-11-27T10:34:33.990Z,42.30
2018-11-27T10:35:33.923Z,42.30
2018-11-27T10:36:33.857Z,42.19
2018-11-27T10:37:33.788Z,42.60
2018-11-27T10:38:33.759Z,42.30
2018-11-27T10:39:33.671Z,42.30
2018-11-27T10:40:33.600Z,42.30
2018-11-27T10:41:33.535Z,42.30
2018-11-27T10:42:33.465Z,42.49
2018-11-27T10:43:33.423Z,42.19
2018-11-27T10:44:33.338Z,42.49
2018-11-27T10:45:33.264Z,42.30
2018-11-27T10:46:33.190Z,42.60
2018-11-27T10:47:33.125Z,42.80
2018-11-27T10:48:33.080Z,42.40
2018-11-27T10:49:32.984Z,42.90
2018-11-27T10:50:32.919Z,42.10
2018-11-27T10:51:32.854Z,42.60
2018-11-27T10:52:32.785Z,42.80
2018-11-27T10:53:32.736Z,42.40
2018-11-27T10:54:32.663Z,43.10
2018-11-27T10:55:32.584Z,42.30
2018-11-27T10:56:32.522Z,42.49
2018-11-27T10:57:32.449Z,42.69
2018-11-27T10:58:32.419Z,42.30
2018-11-27T10:59:32.325Z,42.69
2018-11-27T11:00:32.259Z,42.30
2018-11-27T11:01:32.197Z,42.30
2018-11-27T11:02:32.122Z,42.40
2018-11-27T11:03:32.044Z,42.19
2018-11-27T11:04:31.995Z,42.40
2018-11-27T11:05:31.922Z,43.20
2018-11-27T11:06:31.855Z,43.50
2018-11-27T11:07:31.822Z,43.60
2018-11-27T11:08:31.718Z,42.60
2018-11-27T11:09:31.665Z,43.70
2018-11-27T11:10:31.592Z,43.50
2018-11-27T11:11:31.521Z,44.10
2018-11-27T11:12:31.444Z,43.80
2018-11-27T11:13:31.377Z,43.80
2018-11-27T11:14:31.329Z,43.50
2018-11-27T11:15:31.236Z,43.30
2018-11-27T11:16:31.172Z,43.40
2018-11-27T11:17:31.104Z,43.80
2018-11-27T11:18:31.036Z,44.20
2018-11-27T11:19:30.986Z,43.90
2018-11-27T11:20:30.907Z,44.40
2018-11-27T11:21:30.844Z,44.31
2018-11-27T11:22:30.773Z,43.90
2018-11-27T11:23:30.707Z,44.71
2018-11-27T11:24:30.656Z,44.31
2018-11-27T11:25:30.572Z,44.51
2018-11-27T11:26:30.506Z,44.31
2018-11-27T11:27:30.440Z,44.31
2018-11-27T11:28:30.377Z,44.51
2018-11-27T11:29:30.341Z,44.00
2018-11-27T11:30:30.254Z,44.31
2018-11-27T11:31:30.186Z,44.10
2018-11-27T11:32:30.123Z,43.90
2018-11-27T11:33:30.073Z,44.51
2018-11-27T11:34:29.994Z,44.31
2018-11-27T11:35:29.942Z,44.31
2018-11-27T11:36:29.874Z,44.51
2018-11-27T11:37:29.824Z,44.10
2018-11-27T11:38:29.746Z,44.40
2018-11-27T11:39:29.674Z,44.31
2018-11-27T11:40:29.635Z,43.90
2018-11-27T11:41:31.442Z,44.31
2018-11-27T11:42:29.475Z,44.00
2018-11-27T11:43:29.425Z,43.90
2018-11-27T11:44:29.347Z,44.31
2018-11-27T11:45:29.303Z,44.31
2018-11-27T11:46:29.221Z,44.51
2018-11-27T11:47:29.153Z,44.40
2018-11-27T11:48:29.085Z,44.10
2018-11-27T11:49:29.026Z,44.31
2018-11-27T11:50:28.972Z,44.31
2018-11-27T11:51:28.890Z,44.10
2018-11-27T11:52:28.817Z,43.90
2018-11-27T11:53:28.752Z,43.80
2018-11-27T11:54:28.688Z,43.80
2018-11-27T11:55:28.625Z,44.10
2018-11-27T11:56:28.537Z,43.80
2018-11-27T11:57:28.462Z,43.50
2018-11-27T11:58:28.392Z,43.80
2018-11-27T11:59:28.897Z,44.20
2018-11-27T12:00:28.270Z,44.00
2018-11-27T12:01:28.193Z,43.70
2018-11-27T12:02:28.123Z,43.90
2018-11-27T12:03:28.049Z,43.70
2018-11-27T12:04:27.982Z,43.90
2018-11-27T12:05:27.919Z,43.50
2018-11-27T12:06:27.844Z,43.70
2018-11-27T12:07:27.770Z,43.50
2018-11-27T12:08:27.703Z,44.00
2018-11-27T12:09:27.629Z,43.80
2018-11-27T12:10:27.578Z,43.80
2018-11-27T12:11:27.499Z,44.71
2018-11-27T12:12:27.416Z,44.10
2018-11-27T12:13:27.355Z,43.90
2018-11-27T12:14:27.286Z,43.80
2018-11-27T12:15:27.247Z,43.90
2018-11-27T12:16:27.187Z,43.70
2018-11-27T12:17:27.077Z,43.60
2018-11-27T12:18:27.009Z,43.80
2018-11-27T12:19:26.939Z,44.10
2018-11-27T12:20:26.867Z,44.60
2018-11-27T12:21:26.811Z,43.90
2018-11-27T12:22:26.725Z,43.40
2018-11-27T12:23:26.678Z,44.40
2018-11-27T12:24:26.592Z,43.80
2018-11-27T12:25:26.505Z,44.10
2018-11-27T12:26:26.455Z,44.20
2018-11-27T12:27:26.377Z,44.10
2018-11-27T12:28:26.317Z,43.80
2018-11-27T12:29:26.257Z,43.80
2018-11-27T12:30:26.185Z,43.48
2018-11-27T12:31:26.151Z,43.60
2018-11-27T12:32:26.059Z,43.70
2018-11-27T12:33:25.994Z,43.50
2018-11-27T12:34:25.925Z,43.90
2018-11-27T12:35:25.852Z,43.50
2018-11-27T12:36:25.795Z,43.70
2018-11-27T12:37:25.713Z,43.80
2018-11-27T12:38:25.656Z,43.50
2018-11-27T12:39:25.584Z,43.80
2018-11-27T12:40:25.521Z,43.70
2018-11-27T12:41:25.494Z,43.60
2018-11-27T12:42:25.399Z,44.00
2018-11-27T12:43:25.328Z,43.90
2018-11-27T12:44:25.261Z,43.30
2018-11-27T12:45:25.199Z,43.70
2018-11-27T12:46:25.156Z,44.00
2018-11-27T12:47:25.074Z,43.30
2018-11-27T12:48:25.007Z,43.20
2018-11-27T12:49:24.934Z,43.90
2018-11-27T12:50:24.870Z,43.60
2018-11-27T12:51:24.818Z,43.20